sensor_id;sensor_type;location;lat;lon;timestamp;P1;durP1;ratioP1;P2;durP2;ratioP2
34896;SDS011;43407;51.828;-2.298;2024-01-16T00:00:10;10.75;;;5.57;;
34896;SDS011;43407;51.828;-2.298;2024-01-16T00:02:36;9.30;;;5.25;;
34896;SDS011;43407;51.828;-2.298;2024-01-16T00:05:01;8.50;;;5.18;;
34896;SDS011;43407;51.828;-2.298;2024-01-16T00:07:28;9.93;;;5.43;;
34896;SDS011;43407;51.828;-2.298;2024-01-16T00:09:53;8.65;;;5.50;;
34896;SDS011;43407;51.828;-2.298;2024-01-16T00:12:19;9.50;;;5.47;;
34896;SDS011;43407;51.828;-2.298;2024-01-16T00:14:44;7.53;;;4.32;;
34896;SDS011;43407;51.828;-2.298;2024-01-16T00:17:10;9.15;;;5.20;;
34896;SDS011;43407;51.828;-2.298;2024-01-16T00:19:36;6.70;;;4.95;;
34896;SDS011;43407;51.828;-2.298;2024-01-16T00:22:01;7.43;;;4.93;;
34896;SDS011;43407;51.828;-2.298;2024-01-16T00:24:29;9.70;;;5.25;;
34896;SDS011;43407;51.828;-2.298;2024-01-16T00:26:54;7.22;;;4.53;;
34896;SDS011;43407;51.828;-2.298;2024-01-16T00:29:19;7.10;;;4.60;;
34896;SDS011;43407;51.828;-2.298;2024-01-16T00:31:45;5.40;;;3.97;;
34896;SDS011;43407;51.828;-2.298;2024-01-16T00:34:10;5.60;;;4.05;;
34896;SDS011;43407;51.828;-2.298;2024-01-16T00:36:36;5.85;;;3.88;;
34896;SDS011;43407;51.828;-2.298;2024-01-16T00:39:01;5.95;;;3.90;;
34896;SDS011;43407;51.828;-2.298;2024-01-16T00:41:28;4.63;;;3.30;;
34896;SDS011;43407;51.828;-2.298;2024-01-16T00:43:53;8.75;;;3.72;;
34896;SDS011;43407;51.828;-2.298;2024-01-16T00:46:18;4.82;;;3.33;;
34896;SDS011;43407;51.828;-2.298;2024-01-16T00:48:44;5.63;;;3.72;;
34896;SDS011;43407;51.828;-2.298;2024-01-16T00:51:09;8.52;;;4.13;;
34896;SDS011;43407;51.828;-2.298;2024-01-16T00:53:39;8.18;;;3.65;;
34896;SDS011;43407;51.828;-2.298;2024-01-16T00:56:04;5.75;;;3.55;;
34896;SDS011;43407;51.828;-2.298;2024-01-16T00:58:30;5.60;;;3.55;;
34896;SDS011;43407;51.828;-2.298;2024-01-16T01:00:55;5.75;;;4.55;;
34896;SDS011;43407;51.828;-2.298;2024-01-16T01:03:20;8.35;;;4.18;;
34896;SDS011;43407;51.828;-2.298;2024-01-16T01:05:46;7.75;;;4.78;;
34896;SDS011;43407;51.828;-2.298;2024-01-16T01:08:11;7.45;;;4.60;;
34896;SDS011;43407;51.828;-2.298;2024-01-16T01:10:36;5.38;;;3.55;;
34896;SDS011;43407;51.828;-2.298;2024-01-16T01:13:02;6.28;;;4.25;;
34896;SDS011;43407;51.828;-2.298;2024-01-16T01:15:27;8.13;;;4.07;;
34896;SDS011;43407;51.828;-2.298;2024-01-16T01:17:52;4.80;;;3.45;;
34896;SDS011;43407;51.828;-2.298;2024-01-16T01:20:19;6.78;;;3.65;;
34896;SDS011;43407;51.828;-2.298;2024-01-16T01:22:45;5.15;;;3.60;;
34896;SDS011;43407;51.828;-2.298;2024-01-16T01:25:10;7.30;;;4.15;;
34896;SDS011;43407;51.828;-2.298;2024-01-16T01:27:36;7.45;;;3.92;;
34896;SDS011;43407;51.828;-2.298;2024-01-16T01:30:02;6.57;;;4.10;;
34896;SDS011;43407;51.828;-2.298;2024-01-16T01:32:28;7.72;;;4.32;;
34896;SDS011;43407;51.828;-2.298;2024-01-16T01:34:54;6.05;;;4.10;;
34896;SDS011;43407;51.828;-2.298;2024-01-16T01:37:19;6.47;;;4.10;;
34896;SDS011;43407;51.828;-2.298;2024-01-16T01:39:44;7.00;;;4.53;;
34896;SDS011;43407;51.828;-2.298;2024-01-16T01:42:10;6.32;;;4.13;;
34896;SDS011;43407;51.828;-2.298;2024-01-16T01:44:35;7.28;;;3.65;;
34896;SDS011;43407;51.828;-2.298;2024-01-16T01:47:00;6.68;;;4.07;;
34896;SDS011;43407;51.828;-2.298;2024-01-16T01:49:26;6.90;;;4.10;;
34896;SDS011;43407;51.828;-2.298;2024-01-16T01:51:52;6.35;;;4.38;;
34896;SDS011;43407;51.828;-2.298;2024-01-16T01:54:18;4.75;;;3.35;;
34896;SDS011;43407;51.828;-2.298;2024-01-16T01:56:44;4.22;;;3.17;;
34896;SDS011;43407;51.828;-2.298;2024-01-16T01:59:10;4.82;;;3.63;;
34896;SDS011;43407;51.828;-2.298;2024-01-16T02:01:36;5.93;;;3.30;;
34896;SDS011;43407;51.828;-2.298;2024-01-16T02:04:01;4.00;;;3.30;;
34896;SDS011;43407;51.828;-2.298;2024-01-16T02:06:27;7.65;;;3.80;;
34896;SDS011;43407;51.828;-2.298;2024-01-16T02:08:52;7.15;;;3.20;;
34896;SDS011;43407;51.828;-2.298;2024-01-16T02:11:18;5.47;;;3.70;;
34896;SDS011;43407;51.828;-2.298;2024-01-16T02:13:43;5.15;;;3.22;;
34896;SDS011;43407;51.828;-2.298;2024-01-16T02:16:21;4.28;;;2.58;;
34896;SDS011;43407;51.828;-2.298;2024-01-16T02:18:46;5.93;;;3.15;;
34896;SDS011;43407;51.828;-2.298;2024-01-16T02:21:12;4.43;;;3.20;;
34896;SDS011;43407;51.828;-2.298;2024-01-16T02:23:38;3.95;;;2.97;;
34896;SDS011;43407;51.828;-2.298;2024-01-16T02:26:03;5.20;;;3.08;;
34896;SDS011;43407;51.828;-2.298;2024-01-16T02:28:29;5.97;;;3.00;;
34896;SDS011;43407;51.828;-2.298;2024-01-16T02:30:54;4.30;;;2.85;;
34896;SDS011;43407;51.828;-2.298;2024-01-16T02:33:19;5.15;;;2.50;;
34896;SDS011;43407;51.828;-2.298;2024-01-16T02:35:45;5.50;;;3.15;;
34896;SDS011;43407;51.828;-2.298;2024-01-16T02:38:10;4.97;;;2.95;;
34896;SDS011;43407;51.828;-2.298;2024-01-16T02:40:35;3.47;;;2.83;;
34896;SDS011;43407;51.828;-2.298;2024-01-16T02:43:01;6.82;;;3.28;;
34896;SDS011;43407;51.828;-2.298;2024-01-16T02:45:26;5.50;;;2.90;;
34896;SDS011;43407;51.828;-2.298;2024-01-16T02:47:52;5.90;;;3.00;;
34896;SDS011;43407;51.828;-2.298;2024-01-16T02:50:17;5.15;;;3.25;;
34896;SDS011;43407;51.828;-2.298;2024-01-16T02:52:42;6.22;;;3.05;;
34896;SDS011;43407;51.828;-2.298;2024-01-16T02:55:07;8.20;;;3.80;;
34896;SDS011;43407;51.828;-2.298;2024-01-16T02:57:33;9.15;;;4.32;;
34896;SDS011;43407;51.828;-2.298;2024-01-16T02:59:58;8.32;;;5.15;;
34896;SDS011;43407;51.828;-2.298;2024-01-16T03:02:23;9.45;;;5.72;;
34896;SDS011;43407;51.828;-2.298;2024-01-16T03:04:49;8.07;;;5.25;;
34896;SDS011;43407;51.828;-2.298;2024-01-16T03:07:15;11.70;;;5.70;;
34896;SDS011;43407;51.828;-2.298;2024-01-16T03:09:40;8.82;;;5.93;;
34896;SDS011;43407;51.828;-2.298;2024-01-16T03:12:06;8.40;;;6.25;;
34896;SDS011;43407;51.828;-2.298;2024-01-16T03:14:31;9.55;;;6.60;;
34896;SDS011;43407;51.828;-2.298;2024-01-16T03:17:00;11.18;;;6.90;;
34896;SDS011;43407;51.828;-2.298;2024-01-16T03:19:26;11.10;;;7.25;;
34896;SDS011;43407;51.828;-2.298;2024-01-16T03:21:51;11.10;;;6.85;;
34896;SDS011;43407;51.828;-2.298;2024-01-16T03:24:17;11.68;;;6.15;;
34896;SDS011;43407;51.828;-2.298;2024-01-16T03:26:42;9.93;;;6.35;;
34896;SDS011;43407;51.828;-2.298;2024-01-16T03:29:08;8.65;;;5.93;;
34896;SDS011;43407;51.828;-2.298;2024-01-16T03:31:33;9.85;;;6.15;;
34896;SDS011;43407;51.828;-2.298;2024-01-16T03:33:59;12.32;;;6.70;;
34896;SDS011;43407;51.828;-2.298;2024-01-16T03:36:24;10.18;;;6.05;;
34896;SDS011;43407;51.828;-2.298;2024-01-16T03:38:49;10.50;;;6.20;;
34896;SDS011;43407;51.828;-2.298;2024-01-16T03:41:15;9.70;;;5.45;;
34896;SDS011;43407;51.828;-2.298;2024-01-16T03:43:40;10.18;;;5.22;;
34896;SDS011;43407;51.828;-2.298;2024-01-16T03:46:05;9.75;;;6.13;;
34896;SDS011;43407;51.828;-2.298;2024-01-16T03:48:31;8.23;;;5.28;;
34896;SDS011;43407;51.828;-2.298;2024-01-16T03:50:57;8.80;;;5.75;;
34896;SDS011;43407;51.828;-2.298;2024-01-16T03:53:22;8.77;;;5.38;;
34896;SDS011;43407;51.828;-2.298;2024-01-16T03:55:48;9.27;;;5.38;;
34896;SDS011;43407;51.828;-2.298;2024-01-16T03:58:14;8.43;;;5.22;;
34896;SDS011;43407;51.828;-2.298;2024-01-16T04:00:39;10.77;;;6.05;;
34896;SDS011;43407;51.828;-2.298;2024-01-16T04:03:05;7.55;;;4.75;;
34896;SDS011;43407;51.828;-2.298;2024-01-16T04:05:32;7.28;;;4.28;;
34896;SDS011;43407;51.828;-2.298;2024-01-16T04:07:57;7.45;;;4.72;;
34896;SDS011;43407;51.828;-2.298;2024-01-16T04:10:22;7.28;;;4.72;;
34896;SDS011;43407;51.828;-2.298;2024-01-16T04:12:48;6.72;;;4.72;;
34896;SDS011;43407;51.828;-2.298;2024-01-16T04:15:13;10.57;;;5.22;;
34896;SDS011;43407;51.828;-2.298;2024-01-16T04:17:38;7.35;;;4.82;;
34896;SDS011;43407;51.828;-2.298;2024-01-16T04:20:04;6.32;;;4.63;;
34896;SDS011;43407;51.828;-2.298;2024-01-16T04:22:31;8.25;;;5.60;;
34896;SDS011;43407;51.828;-2.298;2024-01-16T04:24:57;8.90;;;5.18;;
34896;SDS011;43407;51.828;-2.298;2024-01-16T04:27:22;9.13;;;5.55;;
34896;SDS011;43407;51.828;-2.298;2024-01-16T04:29:48;7.25;;;4.47;;
34896;SDS011;43407;51.828;-2.298;2024-01-16T04:32:13;9.95;;;4.20;;
34896;SDS011;43407;51.828;-2.298;2024-01-16T04:34:38;7.22;;;4.38;;
34896;SDS011;43407;51.828;-2.298;2024-01-16T04:37:03;8.15;;;4.53;;
34896;SDS011;43407;51.828;-2.298;2024-01-16T04:39:29;7.53;;;4.28;;
34896;SDS011;43407;51.828;-2.298;2024-01-16T04:41:54;5.90;;;4.10;;
34896;SDS011;43407;51.828;-2.298;2024-01-16T04:44:19;5.22;;;4.10;;
34896;SDS011;43407;51.828;-2.298;2024-01-16T04:46:45;6.53;;;4.50;;
34896;SDS011;43407;51.828;-2.298;2024-01-16T04:49:10;4.95;;;3.72;;
34896;SDS011;43407;51.828;-2.298;2024-01-16T04:51:36;9.45;;;4.93;;
34896;SDS011;43407;51.828;-2.298;2024-01-16T04:54:01;8.48;;;4.80;;
34896;SDS011;43407;51.828;-2.298;2024-01-16T04:56:27;5.95;;;4.30;;
34896;SDS011;43407;51.828;-2.298;2024-01-16T04:58:52;7.88;;;4.80;;
34896;SDS011;43407;51.828;-2.298;2024-01-16T05:01:17;9.15;;;5.30;;
34896;SDS011;43407;51.828;-2.298;2024-01-16T05:03:43;7.15;;;4.65;;
34896;SDS011;43407;51.828;-2.298;2024-01-16T05:06:12;6.70;;;4.25;;
34896;SDS011;43407;51.828;-2.298;2024-01-16T05:08:37;8.52;;;4.68;;
34896;SDS011;43407;51.828;-2.298;2024-01-16T05:11:03;8.48;;;4.60;;
34896;SDS011;43407;51.828;-2.298;2024-01-16T05:13:28;9.18;;;5.10;;
34896;SDS011;43407;51.828;-2.298;2024-01-16T05:15:53;9.25;;;5.28;;
34896;SDS011;43407;51.828;-2.298;2024-01-16T05:18:18;9.80;;;5.60;;
34896;SDS011;43407;51.828;-2.298;2024-01-16T05:20:44;8.55;;;4.97;;
34896;SDS011;43407;51.828;-2.298;2024-01-16T05:23:09;7.60;;;4.80;;
34896;SDS011;43407;51.828;-2.298;2024-01-16T05:25:35;9.23;;;5.60;;
34896;SDS011;43407;51.828;-2.298;2024-01-16T05:28:00;6.68;;;4.35;;
34896;SDS011;43407;51.828;-2.298;2024-01-16T05:30:25;7.65;;;4.32;;
34896;SDS011;43407;51.828;-2.298;2024-01-16T05:32:51;7.78;;;4.85;;
34896;SDS011;43407;51.828;-2.298;2024-01-16T05:35:17;8.30;;;4.35;;
34896;SDS011;43407;51.828;-2.298;2024-01-16T05:37:42;7.78;;;5.28;;
34896;SDS011;43407;51.828;-2.298;2024-01-16T05:40:08;7.10;;;5.13;;
34896;SDS011;43407;51.828;-2.298;2024-01-16T05:42:33;7.18;;;4.60;;
34896;SDS011;43407;51.828;-2.298;2024-01-16T05:44:58;7.07;;;4.32;;
34896;SDS011;43407;51.828;-2.298;2024-01-16T05:47:24;8.57;;;4.70;;
34896;SDS011;43407;51.828;-2.298;2024-01-16T05:49:52;9.25;;;4.93;;
34896;SDS011;43407;51.828;-2.298;2024-01-16T05:52:18;8.70;;;4.40;;
34896;SDS011;43407;51.828;-2.298;2024-01-16T05:54:43;7.72;;;5.53;;
34896;SDS011;43407;51.828;-2.298;2024-01-16T05:57:08;7.10;;;4.57;;
34896;SDS011;43407;51.828;-2.298;2024-01-16T05:59:33;6.22;;;4.57;;
34896;SDS011;43407;51.828;-2.298;2024-01-16T06:01:59;9.27;;;5.05;;
34896;SDS011;43407;51.828;-2.298;2024-01-16T06:04:24;10.23;;;4.88;;
34896;SDS011;43407;51.828;-2.298;2024-01-16T06:06:50;7.82;;;4.78;;
34896;SDS011;43407;51.828;-2.298;2024-01-16T06:09:15;6.45;;;4.40;;
34896;SDS011;43407;51.828;-2.298;2024-01-16T06:11:41;7.47;;;5.28;;
34896;SDS011;43407;51.828;-2.298;2024-01-16T06:14:07;7.75;;;4.75;;
34896;SDS011;43407;51.828;-2.298;2024-01-16T06:16:32;10.57;;;4.78;;
34896;SDS011;43407;51.828;-2.298;2024-01-16T06:18:58;8.27;;;5.32;;
34896;SDS011;43407;51.828;-2.298;2024-01-16T06:21:23;8.65;;;5.28;;
34896;SDS011;43407;51.828;-2.298;2024-01-16T06:23:49;7.50;;;5.32;;
34896;SDS011;43407;51.828;-2.298;2024-01-16T06:26:14;10.27;;;5.82;;
34896;SDS011;43407;51.828;-2.298;2024-01-16T06:28:40;5.35;;;4.75;;
34896;SDS011;43407;51.828;-2.298;2024-01-16T06:31:08;5.80;;;4.78;;
34896;SDS011;43407;51.828;-2.298;2024-01-16T06:33:33;7.07;;;4.45;;
34896;SDS011;43407;51.828;-2.298;2024-01-16T06:35:58;7.55;;;4.07;;
34896;SDS011;43407;51.828;-2.298;2024-01-16T06:38:26;4.95;;;4.18;;
34896;SDS011;43407;51.828;-2.298;2024-01-16T06:40:52;7.32;;;4.93;;
34896;SDS011;43407;51.828;-2.298;2024-01-16T06:43:17;7.10;;;4.15;;
34896;SDS011;43407;51.828;-2.298;2024-01-16T06:45:43;6.63;;;3.90;;
34896;SDS011;43407;51.828;-2.298;2024-01-16T06:48:09;6.18;;;3.90;;
34896;SDS011;43407;51.828;-2.298;2024-01-16T06:50:34;6.70;;;3.65;;
34896;SDS011;43407;51.828;-2.298;2024-01-16T06:53:00;6.38;;;4.20;;
34896;SDS011;43407;51.828;-2.298;2024-01-16T06:55:25;7.25;;;4.35;;
34896;SDS011;43407;51.828;-2.298;2024-01-16T06:57:51;6.07;;;4.20;;
34896;SDS011;43407;51.828;-2.298;2024-01-16T07:00:16;4.55;;;3.50;;
34896;SDS011;43407;51.828;-2.298;2024-01-16T07:02:42;6.07;;;3.75;;
34896;SDS011;43407;51.828;-2.298;2024-01-16T07:05:11;9.05;;;3.88;;
34896;SDS011;43407;51.828;-2.298;2024-01-16T07:07:36;5.13;;;4.05;;
34896;SDS011;43407;51.828;-2.298;2024-01-16T07:10:02;5.32;;;3.90;;
34896;SDS011;43407;51.828;-2.298;2024-01-16T07:12:27;5.43;;;3.50;;
34896;SDS011;43407;51.828;-2.298;2024-01-16T07:14:53;4.82;;;3.67;;
34896;SDS011;43407;51.828;-2.298;2024-01-16T07:17:18;7.97;;;3.88;;
34896;SDS011;43407;51.828;-2.298;2024-01-16T07:19:44;8.50;;;4.07;;
34896;SDS011;43407;51.828;-2.298;2024-01-16T07:22:09;7.00;;;3.50;;
34896;SDS011;43407;51.828;-2.298;2024-01-16T07:24:35;4.82;;;3.17;;
34896;SDS011;43407;51.828;-2.298;2024-01-16T07:27:00;4.63;;;3.30;;
34896;SDS011;43407;51.828;-2.298;2024-01-16T07:29:26;5.10;;;3.17;;
34896;SDS011;43407;51.828;-2.298;2024-01-16T07:31:51;4.60;;;3.60;;
34896;SDS011;43407;51.828;-2.298;2024-01-16T07:34:17;7.18;;;3.85;;
34896;SDS011;43407;51.828;-2.298;2024-01-16T07:36:46;5.03;;;3.10;;
34896;SDS011;43407;51.828;-2.298;2024-01-16T07:39:12;3.60;;;2.95;;
34896;SDS011;43407;51.828;-2.298;2024-01-16T07:41:37;4.82;;;2.90;;
34896;SDS011;43407;51.828;-2.298;2024-01-16T07:44:03;6.32;;;3.70;;
34896;SDS011;43407;51.828;-2.298;2024-01-16T07:46:29;5.10;;;4.00;;
34896;SDS011;43407;51.828;-2.298;2024-01-16T07:48:54;6.90;;;3.92;;
34896;SDS011;43407;51.828;-2.298;2024-01-16T07:51:20;4.50;;;3.20;;
34896;SDS011;43407;51.828;-2.298;2024-01-16T07:53:45;5.38;;;3.55;;
34896;SDS011;43407;51.828;-2.298;2024-01-16T07:56:11;6.38;;;3.47;;
34896;SDS011;43407;51.828;-2.298;2024-01-16T07:58:37;5.45;;;3.05;;
34896;SDS011;43407;51.828;-2.298;2024-01-16T08:01:02;4.85;;;3.33;;
34896;SDS011;43407;51.828;-2.298;2024-01-16T08:03:27;5.63;;;3.33;;
34896;SDS011;43407;51.828;-2.298;2024-01-16T08:05:53;6.78;;;3.53;;
34896;SDS011;43407;51.828;-2.298;2024-01-16T08:08:18;6.75;;;3.70;;
34896;SDS011;43407;51.828;-2.298;2024-01-16T08:10:44;8.68;;;3.60;;
34896;SDS011;43407;51.828;-2.298;2024-01-16T08:13:09;5.60;;;3.40;;
34896;SDS011;43407;51.828;-2.298;2024-01-16T08:15:34;5.82;;;3.47;;
34896;SDS011;43407;51.828;-2.298;2024-01-16T08:18:00;7.05;;;3.38;;
34896;SDS011;43407;51.828;-2.298;2024-01-16T08:20:25;7.15;;;3.90;;
34896;SDS011;43407;51.828;-2.298;2024-01-16T08:22:51;5.68;;;3.28;;
34896;SDS011;43407;51.828;-2.298;2024-01-16T08:25:16;6.30;;;3.20;;
34896;SDS011;43407;51.828;-2.298;2024-01-16T08:27:41;8.40;;;3.55;;
34896;SDS011;43407;51.828;-2.298;2024-01-16T08:30:08;5.30;;;3.90;;
34896;SDS011;43407;51.828;-2.298;2024-01-16T08:32:34;5.63;;;3.95;;
34896;SDS011;43407;51.828;-2.298;2024-01-16T08:35:00;10.40;;;4.28;;
34896;SDS011;43407;51.828;-2.298;2024-01-16T08:37:25;8.57;;;4.03;;
34896;SDS011;43407;51.828;-2.298;2024-01-16T08:39:50;8.18;;;4.25;;
34896;SDS011;43407;51.828;-2.298;2024-01-16T08:42:16;6.05;;;3.60;;
34896;SDS011;43407;51.828;-2.298;2024-01-16T08:44:43;5.53;;;3.78;;
34896;SDS011;43407;51.828;-2.298;2024-01-16T08:47:08;7.03;;;3.95;;
34896;SDS011;43407;51.828;-2.298;2024-01-16T08:49:34;6.70;;;4.20;;
34896;SDS011;43407;51.828;-2.298;2024-01-16T08:52:00;6.25;;;4.05;;
34896;SDS011;43407;51.828;-2.298;2024-01-16T08:54:25;5.15;;;3.90;;
34896;SDS011;43407;51.828;-2.298;2024-01-16T08:56:51;9.48;;;4.47;;
34896;SDS011;43407;51.828;-2.298;2024-01-16T08:59:17;9.57;;;3.88;;
34896;SDS011;43407;51.828;-2.298;2024-01-16T09:01:42;7.15;;;4.28;;
34896;SDS011;43407;51.828;-2.298;2024-01-16T09:04:08;9.40;;;4.47;;
34896;SDS011;43407;51.828;-2.298;2024-01-16T09:06:33;6.28;;;3.80;;
34896;SDS011;43407;51.828;-2.298;2024-01-16T09:08:58;6.95;;;4.30;;
34896;SDS011;43407;51.828;-2.298;2024-01-16T09:11:24;5.32;;;3.78;;
34896;SDS011;43407;51.828;-2.298;2024-01-16T09:13:51;4.10;;;3.42;;
34896;SDS011;43407;51.828;-2.298;2024-01-16T09:16:16;6.28;;;3.75;;
34896;SDS011;43407;51.828;-2.298;2024-01-16T09:18:42;5.03;;;3.70;;
34896;SDS011;43407;51.828;-2.298;2024-01-16T09:21:07;8.85;;;4.10;;
34896;SDS011;43407;51.828;-2.298;2024-01-16T09:23:32;7.53;;;4.18;;
34896;SDS011;43407;51.828;-2.298;2024-01-16T09:25:58;8.10;;;4.05;;
34896;SDS011;43407;51.828;-2.298;2024-01-16T09:28:23;6.20;;;4.15;;
34896;SDS011;43407;51.828;-2.298;2024-01-16T09:30:49;7.35;;;4.00;;
34896;SDS011;43407;51.828;-2.298;2024-01-16T09:33:14;6.82;;;4.18;;
34896;SDS011;43407;51.828;-2.298;2024-01-16T09:35:41;6.05;;;4.13;;
34896;SDS011;43407;51.828;-2.298;2024-01-16T09:38:07;5.55;;;3.80;;
34896;SDS011;43407;51.828;-2.298;2024-01-16T09:40:33;5.00;;;3.50;;
34896;SDS011;43407;51.828;-2.298;2024-01-16T09:43:00;4.88;;;3.50;;
34896;SDS011;43407;51.828;-2.298;2024-01-16T09:45:25;7.35;;;3.90;;
34896;SDS011;43407;51.828;-2.298;2024-01-16T09:47:52;4.95;;;3.70;;
34896;SDS011;43407;51.828;-2.298;2024-01-16T09:50:18;8.32;;;4.28;;
34896;SDS011;43407;51.828;-2.298;2024-01-16T09:52:47;6.38;;;4.20;;
34896;SDS011;43407;51.828;-2.298;2024-01-16T09:55:13;6.70;;;4.10;;
34896;SDS011;43407;51.828;-2.298;2024-01-16T09:57:39;7.15;;;3.47;;
34896;SDS011;43407;51.828;-2.298;2024-01-16T10:00:05;6.85;;;3.53;;
34896;SDS011;43407;51.828;-2.298;2024-01-16T10:02:31;6.45;;;4.10;;
34896;SDS011;43407;51.828;-2.298;2024-01-16T10:04:56;7.85;;;4.22;;
34896;SDS011;43407;51.828;-2.298;2024-01-16T10:07:22;6.30;;;4.28;;
34896;SDS011;43407;51.828;-2.298;2024-01-16T10:09:55;4.95;;;4.25;;
34896;SDS011;43407;51.828;-2.298;2024-01-16T10:12:20;9.52;;;5.05;;
34896;SDS011;43407;51.828;-2.298;2024-01-16T10:14:46;7.78;;;4.57;;
34896;SDS011;43407;51.828;-2.298;2024-01-16T10:17:12;8.55;;;4.88;;
34896;SDS011;43407;51.828;-2.298;2024-01-16T10:19:48;9.55;;;4.35;;
34896;SDS011;43407;51.828;-2.298;2024-01-16T10:22:13;5.95;;;4.20;;
34896;SDS011;43407;51.828;-2.298;2024-01-16T10:24:44;5.32;;;4.13;;
34896;SDS011;43407;51.828;-2.298;2024-01-16T10:27:10;9.57;;;4.90;;
34896;SDS011;43407;51.828;-2.298;2024-01-16T10:29:35;6.88;;;4.22;;
34896;SDS011;43407;51.828;-2.298;2024-01-16T10:32:01;6.20;;;3.92;;
34896;SDS011;43407;51.828;-2.298;2024-01-16T10:34:26;5.93;;;4.15;;
34896;SDS011;43407;51.828;-2.298;2024-01-16T10:36:58;10.85;;;5.38;;
34896;SDS011;43407;51.828;-2.298;2024-01-16T10:39:23;9.82;;;5.15;;
34896;SDS011;43407;51.828;-2.298;2024-01-16T10:41:55;8.45;;;4.85;;
34896;SDS011;43407;51.828;-2.298;2024-01-16T10:44:21;7.93;;;4.40;;
34896;SDS011;43407;51.828;-2.298;2024-01-16T10:46:46;11.00;;;4.63;;
34896;SDS011;43407;51.828;-2.298;2024-01-16T10:49:12;8.23;;;4.32;;
34896;SDS011;43407;51.828;-2.298;2024-01-16T10:51:37;6.80;;;4.50;;
34896;SDS011;43407;51.828;-2.298;2024-01-16T10:54:05;7.85;;;3.83;;
34896;SDS011;43407;51.828;-2.298;2024-01-16T10:56:35;8.68;;;4.80;;
34896;SDS011;43407;51.828;-2.298;2024-01-16T11:01:30;5.88;;;4.40;;
34896;SDS011;43407;51.828;-2.298;2024-01-16T11:03:56;7.78;;;4.22;;
34896;SDS011;43407;51.828;-2.298;2024-01-16T11:06:22;6.70;;;4.60;;
34896;SDS011;43407;51.828;-2.298;2024-01-16T11:08:48;6.45;;;4.10;;
34896;SDS011;43407;51.828;-2.298;2024-01-16T11:11:14;10.30;;;4.97;;
34896;SDS011;43407;51.828;-2.298;2024-01-16T11:13:40;7.43;;;4.25;;
34896;SDS011;43407;51.828;-2.298;2024-01-16T11:16:06;6.82;;;4.70;;
34896;SDS011;43407;51.828;-2.298;2024-01-16T11:18:33;7.43;;;4.60;;
34896;SDS011;43407;51.828;-2.298;2024-01-16T11:21:00;11.38;;;5.13;;
34896;SDS011;43407;51.828;-2.298;2024-01-16T11:23:26;6.28;;;4.60;;
34896;SDS011;43407;51.828;-2.298;2024-01-16T11:25:52;5.85;;;4.30;;
34896;SDS011;43407;51.828;-2.298;2024-01-16T11:28:17;7.70;;;4.65;;
34896;SDS011;43407;51.828;-2.298;2024-01-16T11:30:44;6.75;;;4.45;;
34896;SDS011;43407;51.828;-2.298;2024-01-16T11:35:53;9.98;;;5.10;;
34896;SDS011;43407;51.828;-2.298;2024-01-16T11:38:18;6.95;;;5.32;;
34896;SDS011;43407;51.828;-2.298;2024-01-16T11:40:46;8.57;;;4.60;;
34896;SDS011;43407;51.828;-2.298;2024-01-16T11:45:57;6.35;;;3.88;;
34896;SDS011;43407;51.828;-2.298;2024-01-16T11:48:24;5.68;;;4.32;;
34896;SDS011;43407;51.828;-2.298;2024-01-16T11:50:49;7.95;;;4.13;;
34896;SDS011;43407;51.828;-2.298;2024-01-16T11:58:35;5.13;;;3.80;;
34896;SDS011;43407;51.828;-2.298;2024-01-16T12:01:03;9.57;;;4.47;;
34896;SDS011;43407;51.828;-2.298;2024-01-16T12:03:30;9.48;;;4.05;;
34896;SDS011;43407;51.828;-2.298;2024-01-16T12:05:59;6.78;;;4.20;;
34896;SDS011;43407;51.828;-2.298;2024-01-16T12:08:25;5.88;;;3.83;;
34896;SDS011;43407;51.828;-2.298;2024-01-16T12:10:50;7.82;;;3.63;;
34896;SDS011;43407;51.828;-2.298;2024-01-16T12:13:15;6.82;;;3.85;;
34896;SDS011;43407;51.828;-2.298;2024-01-16T12:15:41;7.18;;;3.28;;
34896;SDS011;43407;51.828;-2.298;2024-01-16T12:18:07;7.47;;;3.65;;
34896;SDS011;43407;51.828;-2.298;2024-01-16T12:20:33;9.40;;;3.90;;
34896;SDS011;43407;51.828;-2.298;2024-01-16T12:22:59;9.13;;;3.65;;
34896;SDS011;43407;51.828;-2.298;2024-01-16T12:25:29;6.57;;;3.35;;
34896;SDS011;43407;51.828;-2.298;2024-01-16T12:27:58;6.10;;;3.75;;
34896;SDS011;43407;51.828;-2.298;2024-01-16T12:30:27;7.35;;;3.83;;
34896;SDS011;43407;51.828;-2.298;2024-01-16T12:33:03;10.48;;;3.60;;
34896;SDS011;43407;51.828;-2.298;2024-01-16T12:35:29;4.88;;;3.20;;
34896;SDS011;43407;51.828;-2.298;2024-01-16T12:37:58;6.22;;;3.00;;
34896;SDS011;43407;51.828;-2.298;2024-01-16T12:40:24;3.58;;;2.70;;
34896;SDS011;43407;51.828;-2.298;2024-01-16T12:42:50;5.45;;;3.08;;
34896;SDS011;43407;51.828;-2.298;2024-01-16T12:45:16;4.32;;;2.90;;
34896;SDS011;43407;51.828;-2.298;2024-01-16T12:47:42;5.35;;;2.63;;
34896;SDS011;43407;51.828;-2.298;2024-01-16T12:50:08;5.80;;;2.70;;
34896;SDS011;43407;51.828;-2.298;2024-01-16T12:52:33;8.95;;;3.05;;
34896;SDS011;43407;51.828;-2.298;2024-01-16T12:54:59;5.22;;;2.75;;
34896;SDS011;43407;51.828;-2.298;2024-01-16T12:57:25;4.50;;;2.97;;
34896;SDS011;43407;51.828;-2.298;2024-01-16T12:59:51;5.07;;;2.70;;
34896;SDS011;43407;51.828;-2.298;2024-01-16T13:02:23;3.80;;;2.38;;
34896;SDS011;43407;51.828;-2.298;2024-01-16T13:04:59;5.72;;;3.35;;
34896;SDS011;43407;51.828;-2.298;2024-01-16T13:07:25;6.40;;;3.10;;
34896;SDS011;43407;51.828;-2.298;2024-01-16T13:10:05;6.95;;;2.97;;
34896;SDS011;43407;51.828;-2.298;2024-01-16T13:12:30;5.82;;;2.20;;
34896;SDS011;43407;51.828;-2.298;2024-01-16T13:14:58;5.75;;;2.35;;
34896;SDS011;43407;51.828;-2.298;2024-01-16T13:17:23;5.63;;;2.88;;
34896;SDS011;43407;51.828;-2.298;2024-01-16T13:19:49;12.80;;;6.07;;
34896;SDS011;43407;51.828;-2.298;2024-01-16T13:22:14;7.68;;;3.67;;
34896;SDS011;43407;51.828;-2.298;2024-01-16T13:24:39;6.32;;;3.05;;
34896;SDS011;43407;51.828;-2.298;2024-01-16T13:27:05;4.25;;;1.90;;
34896;SDS011;43407;51.828;-2.298;2024-01-16T13:29:32;3.13;;;1.80;;
34896;SDS011;43407;51.828;-2.298;2024-01-16T13:32:02;3.72;;;2.40;;
34896;SDS011;43407;51.828;-2.298;2024-01-16T13:34:27;7.40;;;3.47;;
34896;SDS011;43407;51.828;-2.298;2024-01-16T13:36:53;9.52;;;4.38;;
34896;SDS011;43407;51.828;-2.298;2024-01-16T13:39:19;9.55;;;5.40;;
34896;SDS011;43407;51.828;-2.298;2024-01-16T13:41:45;9.57;;;4.50;;
34896;SDS011;43407;51.828;-2.298;2024-01-16T13:44:11;5.65;;;3.08;;
34896;SDS011;43407;51.828;-2.298;2024-01-16T13:46:37;6.82;;;4.07;;
34896;SDS011;43407;51.828;-2.298;2024-01-16T13:49:02;16.52;;;6.78;;
34896;SDS011;43407;51.828;-2.298;2024-01-16T13:51:28;15.57;;;6.53;;
34896;SDS011;43407;51.828;-2.298;2024-01-16T13:53:53;11.80;;;4.72;;
34896;SDS011;43407;51.828;-2.298;2024-01-16T13:56:18;18.98;;;7.57;;
34896;SDS011;43407;51.828;-2.298;2024-01-16T13:58:44;16.48;;;7.55;;
34896;SDS011;43407;51.828;-2.298;2024-01-16T14:01:10;21.40;;;8.40;;
34896;SDS011;43407;51.828;-2.298;2024-01-16T14:03:36;30.35;;;13.40;;
34896;SDS011;43407;51.828;-2.298;2024-01-16T14:06:01;22.45;;;11.07;;
34896;SDS011;43407;51.828;-2.298;2024-01-16T14:08:27;22.23;;;11.43;;
34896;SDS011;43407;51.828;-2.298;2024-01-16T14:10:52;21.95;;;10.43;;
34896;SDS011;43407;51.828;-2.298;2024-01-16T14:13:17;24.00;;;10.25;;
34896;SDS011;43407;51.828;-2.298;2024-01-16T14:15:42;24.75;;;11.02;;
34896;SDS011;43407;51.828;-2.298;2024-01-16T14:18:08;18.45;;;7.72;;
34896;SDS011;43407;51.828;-2.298;2024-01-16T14:20:34;13.50;;;5.45;;
34896;SDS011;43407;51.828;-2.298;2024-01-16T14:22:59;8.75;;;3.88;;
34896;SDS011;43407;51.828;-2.298;2024-01-16T14:25:24;5.88;;;3.25;;
34896;SDS011;43407;51.828;-2.298;2024-01-16T14:30:24;5.68;;;2.20;;
34896;SDS011;43407;51.828;-2.298;2024-01-16T14:32:50;7.45;;;2.17;;
34896;SDS011;43407;51.828;-2.298;2024-01-16T14:35:16;3.83;;;2.17;;
34896;SDS011;43407;51.828;-2.298;2024-01-16T14:37:43;3.47;;;1.85;;
34896;SDS011;43407;51.828;-2.298;2024-01-16T14:40:08;4.90;;;1.67;;